Time;durP1;ratioP1;P1;durP2;ratioP2;P2;SDS_P1;SDS_P2;PMS_P1;PMS_P2;Temp;Humidity;BMP_temperature;BMP_pressure;BME280_temperature;BME280_humidity;BME280_pressure;Samples;Min_cycle;Max_cycle;Signal;HPM_P1;HPM_P2
2021/08/30 00:00:07;;;;;;;0.20;0.20;;;11.60;96.10;;;;;;2098303;28;20630;-66
2021/08/30 00:01:08;;;;;;;0.20;0.20;;;11.60;96.20;;;;;;2098190;28;20207;-64
2021/08/30 00:02:09;;;;;;;0.40;0.40;;;11.60;96.40;;;;;;2098333;28;20179;-65
2021/08/30 00:03:09;;;;;;;0.10;0.10;;;11.60;96.40;;;;;;2098177;28;20715;-65
2021/08/30 00:04:10;;;;;;;0.20;0.20;;;11.60;96.30;;;;;;2105864;28;20218;-64
2021/08/30 00:05:11;;;;;;;0.27;0.27;;;11.60;96.40;;;;;;2105929;28;20237;-66
2021/08/30 00:06:12;;;;;;;0.50;0.43;;;11.60;96.40;;;;;;2098287;28;20186;-65
2021/08/30 00:07:13;;;;;;;0.30;0.30;;;11.60;96.30;;;;;;2097668;28;20182;-66
2021/08/30 00:08:13;;;;;;;0.30;0.30;;;11.70;96.30;;;;;;2097682;28;20211;-65
2021/08/30 00:09:14;;;;;;;0.20;0.20;;;11.60;96.10;;;;;;2097864;28;20183;-64
2021/08/30 00:10:15;;;;;;;0.43;0.30;;;11.60;96.30;;;;;;2098089;28;20183;-65
2021/08/30 00:11:17;;;;;;;0.40;0.40;;;11.60;96.40;;;;;;2098205;28;20176;-65
2021/08/30 00:12:18;;;;;;;0.47;0.47;;;11.60;96.40;;;;;;2098204;28;20190;-64
2021/08/30 00:13:19;;;;;;;0.33;0.33;;;11.60;96.40;;;;;;2098188;28;20180;-66
2021/08/30 00:14:20;;;;;;;0.33;0.33;;;11.60;96.30;;;;;;2098239;28;20179;-65
2021/08/30 00:15:20;;;;;;;0.50;0.50;;;11.70;96.40;;;;;;2098162;28;20214;-64
2021/08/30 00:16:21;;;;;;;0.20;0.20;;;11.70;96.40;;;;;;2097583;28;20181;-66
2021/08/30 00:17:22;;;;;;;0.50;0.50;;;11.70;96.40;;;;;;2097499;28;20176;-65
2021/08/30 00:18:24;;;;;;;0.30;0.30;;;11.80;96.30;;;;;;2098202;28;20175;-64
2021/08/30 00:19:28;;;;;;;0.30;0.30;;;11.80;96.20;;;;;;2097843;28;20878;-63
2021/08/30 00:20:29;;;;;;;0.77;0.30;;;11.80;96.20;;;;;;2098136;28;20696;-66
2021/08/30 00:21:30;;;;;;;1.07;0.30;;;11.80;96.20;;;;;;2098040;28;20172;-65
2021/08/30 00:22:30;;;;;;;0.30;0.30;;;11.80;96.20;;;;;;2098240;28;20213;-64
2021/08/30 00:23:31;;;;;;;0.33;0.13;;;11.70;96.00;;;;;;2098093;28;20605;-65
2021/08/30 00:24:32;;;;;;;0.30;0.30;;;11.70;96.00;;;;;;2098125;28;20196;-64
2021/08/30 00:25:33;;;;;;;0.33;0.33;;;11.70;96.10;;;;;;2097996;28;20176;-64
2021/08/30 00:26:34;;;;;;;0.30;0.30;;;11.70;96.20;;;;;;2098153;28;20175;-63
2021/08/30 00:27:35;;;;;;;0.30;0.30;;;11.80;96.20;;;;;;2098149;28;20708;-65
2021/08/30 00:28:36;;;;;;;0.10;0.10;;;11.90;96.00;;;;;;2098088;28;20207;-66
2021/08/30 00:29:36;;;;;;;0.57;0.57;;;11.90;95.90;;;;;;2097204;28;20233;-65
2021/08/30 00:30:37;;;;;;;2.47;0.50;;;11.90;95.90;;;;;;2098054;28;20277;-64
2021/08/30 00:31:38;;;;;;;0.43;0.43;;;11.80;96.40;;;;;;2097534;28;20190;-64
2021/08/30 00:32:39;;;;;;;0.20;0.20;;;11.80;96.10;;;;;;2097474;28;20186;-65
2021/08/30 00:33:39;;;;;;;0.43;0.43;;;11.80;96.10;;;;;;2097604;28;20650;-65
2021/08/30 00:34:40;;;;;;;0.20;0.20;;;11.80;96.20;;;;;;2097492;28;20650;-65
2021/08/30 00:35:41;;;;;;;0.30;0.30;;;11.90;96.00;;;;;;2098017;28;20218;-65
2021/08/30 00:36:41;;;;;;;0.30;0.30;;;11.90;95.90;;;;;;2097317;28;20635;-65
2021/08/30 00:37:42;;;;;;;0.77;0.30;;;11.90;95.90;;;;;;2097479;28;20222;-64
2021/08/30 00:38:43;;;;;;;0.60;0.40;;;11.90;96.30;;;;;;2098072;28;20251;-65
2021/08/30 00:39:46;;;;;;;0.50;0.50;;;11.80;95.90;;;;;;2097794;28;20172;-65
2021/08/30 00:40:47;;;;;;;0.50;0.50;;;11.80;96.00;;;;;;2097996;28;20274;-65
2021/08/30 00:41:51;;;;;;;0.40;0.40;;;11.80;96.10;;;;;;2098078;28;20179;-64
2021/08/30 00:42:52;;;;;;;0.52;0.52;;;11.80;96.00;;;;;;2098070;28;20213;-66
2021/08/30 00:43:53;;;;;;;0.33;0.30;;;11.80;96.30;;;;;;2098188;28;20589;-65
2021/08/30 00:44:54;;;;;;;0.75;0.63;;;11.70;96.20;;;;;;2097435;28;20662;-66
2021/08/30 00:45:55;;;;;;;0.33;0.33;;;11.70;96.30;;;;;;2097529;28;20187;-64
2021/08/30 00:46:56;;;;;;;0.30;0.30;;;11.70;96.50;;;;;;2098050;28;20550;-65
2021/08/30 00:47:57;;;;;;;0.47;0.47;;;11.70;96.50;;;;;;2098119;28;20254;-66
2021/08/30 00:48:58;;;;;;;0.55;0.40;;;11.70;96.60;;;;;;2097713;28;20182;-66
2021/08/30 00:49:59;;;;;;;0.57;0.40;;;11.70;96.60;;;;;;2098078;28;20225;-66
2021/08/30 00:51:00;;;;;;;2.87;0.67;;;11.70;96.60;;;;;;2097879;28;20248;-64
2021/08/30 00:52:01;;;;;;;0.60;0.60;;;11.70;97.20;;;;;;2097465;28;20199;-65
2021/08/30 00:53:04;;;;;;;0.40;0.40;;;11.70;97.10;;;;;;2089030;28;20180;-65
2021/08/30 00:54:05;;;;;;;0.50;0.50;;;11.70;96.50;;;;;;2097449;28;20270;-65
2021/08/30 00:55:07;;;;;;;0.57;0.57;;;11.70;96.50;;;;;;2097255;28;20215;-65
2021/08/30 00:56:07;;;;;;;0.38;0.38;;;11.80;96.40;;;;;;2097421;28;20229;-65
2021/08/30 00:57:09;;;;;;;1.13;0.63;;;11.90;96.40;;;;;;2097992;28;20240;-65
2021/08/30 00:58:10;;;;;;;0.60;0.52;;;11.90;96.20;;;;;;2097977;28;20171;-63
2021/08/30 00:59:10;;;;;;;0.43;0.43;;;11.90;96.10;;;;;;2097681;28;20582;-64
2021/08/30 01:00:13;;;;;;;0.43;0.43;;;11.90;96.00;;;;;;2098027;28;20204;-65
2021/08/30 01:01:14;;;;;;;0.40;0.40;;;11.90;96.00;;;;;;2097155;28;20224;-65
2021/08/30 01:02:14;;;;;;;0.20;0.10;;;11.80;95.80;;;;;;2097473;28;20215;-65
2021/08/30 01:03:15;;;;;;;0.33;0.33;;;11.80;96.00;;;;;;2098001;28;20184;-66
2021/08/30 01:04:17;;;;;;;1.67;0.60;;;11.80;96.20;;;;;;2097984;28;20226;-65
2021/08/30 01:05:17;;;;;;;0.20;0.20;;;11.80;96.30;;;;;;2098045;28;20180;-65
2021/08/30 01:06:46;;;;;;;0.20;0.20;;;11.80;96.30;;;;;;2097408;28;20206;-64
2021/08/30 01:08:05;;;;;;;0.20;0.20;;;11.80;96.20;;;;;;2092793;28;20173;-68
2021/08/30 01:09:15;;;;;;;0.40;0.40;;;11.80;96.30;;;;;;2091297;28;20172;-66
2021/08/30 01:10:34;;;;;;;0.40;0.40;;;11.80;96.20;;;;;;2097322;28;20179;-66
2021/08/30 01:11:43;;;;;;;0.65;0.57;;;11.90;96.20;;;;;;2097990;28;20171;-66
2021/08/30 01:12:52;;;;;;;0.30;0.30;;;11.90;96.00;;;;;;2097403;28;20156;-65
2021/08/30 01:14:00;;;;;;;0.22;0.22;;;12.00;95.80;;;;;;2090090;28;20188;-64
2021/08/30 01:15:22;;;;;;;0.50;0.30;;;11.90;95.70;;;;;;2089910;28;20636;-64
2021/08/30 01:16:25;;;;;;;0.40;0.40;;;11.80;95.60;;;;;;2091973;28;20751;-64
2021/08/30 01:17:29;;;;;;;0.93;0.55;;;11.80;95.80;;;;;;2089540;28;20172;-65
2021/08/30 01:18:33;;;;;;;0.60;0.60;;;11.80;96.10;;;;;;2091755;28;20654;-66
2021/08/30 01:19:39;;;;;;;0.40;0.40;;;11.70;96.20;;;;;;2089274;28;20177;-66
2021/08/30 01:21:13;;;;;;;0.70;0.70;;;11.80;96.30;;;;;;2089807;28;20222;-65
2021/08/30 01:22:16;;;;;;;0.40;0.40;;;11.80;96.30;;;;;;2093553;28;20188;-64
2021/08/30 01:23:18;;;;;;;0.43;0.43;;;11.70;96.40;;;;;;2089224;28;20176;-64
2021/08/30 01:24:20;;;;;;;0.73;0.73;;;11.70;96.60;;;;;;2097243;28;20186;-65
2021/08/30 01:25:21;;;;;;;0.40;0.40;;;11.70;96.60;;;;;;2097392;28;20195;-65
2021/08/30 01:26:25;;;;;;;0.32;0.32;;;11.70;96.50;;;;;;2097302;28;20179;-65
2021/08/30 01:27:29;;;;;;;0.90;0.65;;;11.80;96.40;;;;;;2097293;28;20192;-65
2021/08/30 01:28:37;;;;;;;0.90;0.60;;;11.80;96.40;;;;;;2097119;28;20183;-65
2021/08/30 01:30:00;;;;;;;0.77;0.57;;;11.80;96.30;;;;;;2097124;28;20156;-66
2021/08/30 01:31:19;;;;;;;0.82;0.68;;;11.80;96.20;;;;;;2091750;28;20705;-65
2021/08/30 01:32:34;;;;;;;0.63;0.63;;;11.90;96.30;;;;;;2097439;28;20167;-65
2021/08/30 01:33:35;;;;;;;1.05;0.95;;;11.80;96.40;;;;;;2098072;28;20182;-65
2021/08/30 01:34:38;;;;;;;0.77;0.75;;;11.80;96.40;;;;;;2097163;28;20180;-65
2021/08/30 01:35:39;;;;;;;1.38;0.82;;;11.80;96.60;;;;;;2097187;28;20709;-63
2021/08/30 01:36:43;;;;;;;0.77;0.60;;;11.80;96.50;;;;;;2097786;28;20183;-66
2021/08/30 01:37:48;;;;;;;1.70;0.77;;;11.70;96.60;;;;;;2097789;28;20598;-66
2021/08/30 01:38:49;;;;;;;0.88;0.80;;;11.70;96.60;;;;;;2097042;28;20176;-64
2021/08/30 01:39:50;;;;;;;0.88;0.85;;;11.80;96.70;;;;;;2088878;28;20181;-64
2021/08/30 01:40:51;;;;;;;0.80;0.65;;;11.80;96.70;;;;;;2089453;28;20196;-64
2021/08/30 01:41:52;;;;;;;0.90;0.53;;;11.80;96.60;;;;;;2090456;28;20264;-65
2021/08/30 01:42:56;;;;;;;1.50;0.65;;;11.90;96.50;;;;;;2098788;28;20449;-64
2021/08/30 01:43:57;;;;;;;0.45;0.45;;;11.90;96.50;;;;;;2099314;28;20176;-64
2021/08/30 01:45:05;;;;;;;1.58;0.93;;;11.90;96.30;;;;;;2098702;28;20187;-65
2021/08/30 01:46:06;;;;;;;0.50;0.50;;;12.00;96.30;;;;;;2091483;28;20172;-64
2021/08/30 01:47:07;;;;;;;0.60;0.57;;;12.00;96.00;;;;;;2098631;28;20676;-65
2021/08/30 01:48:08;;;;;;;0.47;0.47;;;11.90;96.10;;;;;;2099212;28;20171;-66
2021/08/30 01:49:10;;;;;;;0.57;0.50;;;11.90;96.20;;;;;;2098892;28;20528;-64
2021/08/30 01:50:15;;;;;;;0.40;0.40;;;11.90;96.30;;;;;;2099307;28;20176;-64
2021/08/30 01:51:20;;;;;;;0.50;0.50;;;11.90;96.30;;;;;;2098476;28;20195;-64
2021/08/30 01:52:20;;;;;;;0.68;0.68;;;11.80;96.50;;;;;;2098646;28;20590;-65
2021/08/30 01:53:21;;;;;;;0.63;0.63;;;11.70;96.60;;;;;;2098494;28;20183;-65
2021/08/30 01:54:24;;;;;;;0.67;0.57;;;11.80;96.70;;;;;;2098711;28;20206;-63
2021/08/30 01:55:49;;;;;;;0.65;0.52;;;11.80;96.70;;;;;;2098427;28;20203;-66
2021/08/30 01:56:52;;;;;;;0.38;0.38;;;11.80;96.60;;;;;;2093748;28;20179;-64
2021/08/30 02:01:39;;;;;;;0.57;0.57;;;11.80;96.40;;;;;;2098892;28;20171;-66
2021/08/30 02:02:40;;;;;;;0.35;0.35;;;11.80;96.50;;;;;;2098591;28;20605;-65
2021/08/30 02:03:40;;;;;;;0.60;0.60;;;11.80;96.40;;;;;;2098588;28;20203;-64
2021/08/30 02:04:41;;;;;;;0.50;0.50;;;11.80;96.50;;;;;;2099208;28;20656;-65
2021/08/30 02:05:50;;;;;;;0.43;0.40;;;11.80;96.40;;;;;;2099003;28;20182;-64
2021/08/30 02:06:51;;;;;;;0.40;0.40;;;11.80;96.30;;;;;;2097189;28;20686;-65
2021/08/30 02:07:52;;;;;;;1.53;0.50;;;11.80;96.40;;;;;;2097010;28;20187;-65
2021/08/30 02:08:55;;;;;;;0.57;0.40;;;11.70;96.50;;;;;;2098164;28;20286;-64
2021/08/30 02:09:56;;;;;;;0.75;0.60;;;11.70;96.70;;;;;;2098958;28;20206;-65
2021/08/30 02:11:05;;;;;;;0.60;0.57;;;11.70;96.80;;;;;;2099186;28;20195;-65
2021/08/30 02:12:06;;;;;;;0.60;0.57;;;11.70;96.70;;;;;;2099136;28;20402;-65
2021/08/30 02:13:07;;;;;;;0.88;0.50;;;11.70;96.80;;;;;;2099077;28;20823;-64
2021/08/30 02:14:08;;;;;;;2.83;0.50;;;11.70;96.80;;;;;;2099272;28;20179;-64
2021/08/30 02:15:09;;;;;;;0.67;0.67;;;11.70;96.80;;;;;;2098422;28;20203;-65
2021/08/30 02:16:10;;;;;;;0.80;0.50;;;11.70;96.80;;;;;;2098346;28;20426;-65
2021/08/30 02:17:22;;;;;;;0.60;0.60;;;11.70;96.70;;;;;;2098408;28;20573;-65
2021/08/30 02:18:27;;;;;;;0.65;0.50;;;11.80;96.60;;;;;;2091839;28;20248;-64
2021/08/30 02:19:41;;;;;;;0.47;0.47;;;11.80;96.60;;;;;;2098127;28;20688;-65
2021/08/30 02:20:55;;;;;;;1.15;0.88;;;11.80;96.60;;;;;;2098563;28;20591;-65
2021/08/30 02:22:03;;;;;;;1.98;1.02;;;11.70;97.20;;;;;;2091791;28;20179;-65
2021/08/30 02:23:05;;;;;;;0.52;0.52;;;11.70;96.90;;;;;;2098578;28;20164;-64
2021/08/30 02:24:15;;;;;;;2.55;1.00;;;11.70;96.90;;;;;;2098321;28;20183;-65
2021/08/30 02:25:19;;;;;;;1.20;1.02;;;11.70;96.90;;;;;;2098407;28;20192;-66
2021/08/30 02:26:31;;;;;;;0.75;0.57;;;11.70;96.90;;;;;;2098940;28;20733;-64
2021/08/30 02:27:43;;;;;;;0.73;0.70;;;11.70;97.10;;;;;;2099041;28;20160;-65
2021/08/30 02:28:46;;;;;;;0.70;0.70;;;11.70;97.10;;;;;;2098972;28;20577;-66
2021/08/30 02:30:03;;;;;;;1.60;1.35;;;11.70;97.00;;;;;;2098726;28;20184;-64
2021/08/30 02:31:04;;;;;;;1.45;0.85;;;11.70;97.00;;;;;;2098455;28;20198;-66
2021/08/30 02:32:07;;;;;;;0.73;0.73;;;11.70;96.80;;;;;;2090032;28;20249;-64
2021/08/30 02:33:12;;;;;;;0.50;0.50;;;11.70;96.80;;;;;;2098349;28;20210;-65
2021/08/30 02:34:14;;;;;;;2.67;0.80;;;11.70;96.70;;;;;;2098243;28;21093;-65
2021/08/30 02:35:29;;;;;;;0.95;0.60;;;11.70;96.70;;;;;;2098264;28;20611;-65
2021/08/30 02:36:30;;;;;;;6.60;0.90;;;11.70;96.90;;;;;;2098873;28;20163;-65
2021/08/30 02:37:35;;;;;;;0.87;0.83;;;11.70;96.80;;;;;;2098924;28;20167;-63
2021/08/30 02:38:36;;;;;;;0.50;0.50;;;11.70;97.00;;;;;;2098248;28;20622;-66
2021/08/30 02:39:37;;;;;;;1.05;0.70;;;11.70;97.00;;;;;;2089880;28;20191;-65
2021/08/30 02:40:41;;;;;;;2.03;0.88;;;11.80;96.90;;;;;;2090066;28;20287;-65
2021/08/30 02:41:42;;;;;;;1.02;0.80;;;11.80;96.90;;;;;;2098269;28;20172;-65
2021/08/30 02:42:43;;;;;;;0.80;0.80;;;11.80;96.90;;;;;;2098655;28;20206;-63
2021/08/30 02:43:45;;;;;;;0.60;0.60;;;11.70;97.00;;;;;;2098381;28;20172;-66
2021/08/30 02:44:47;;;;;;;0.90;0.77;;;11.70;97.00;;;;;;2090044;28;20218;-65
2021/08/30 02:45:48;;;;;;;0.98;0.93;;;11.70;97.00;;;;;;2098236;28;20191;-65
2021/08/30 02:46:49;;;;;;;1.20;0.68;;;11.70;97.10;;;;;;2098167;28;20180;-65
2021/08/30 02:47:51;;;;;;;0.87;0.70;;;11.70;97.10;;;;;;2090028;28;20184;-66
2021/08/30 02:48:55;;;;;;;5.95;0.85;;;11.70;97.20;;;;;;2089814;28;20287;-64
2021/08/30 02:49:56;;;;;;;0.52;0.52;;;11.60;97.30;;;;;;2098302;28;20188;-66
2021/08/30 02:50:57;;;;;;;0.98;0.52;;;11.60;97.30;;;;;;2097856;28;20207;-65
2021/08/30 02:52:04;;;;;;;1.65;0.80;;;11.60;97.40;;;;;;2098007;28;20213;-65
2021/08/30 02:53:05;;;;;;;1.08;0.80;;;11.60;97.40;;;;;;2097736;28;20184;-65
2021/08/30 02:54:08;;;;;;;0.90;0.65;;;11.70;97.40;;;;;;2098289;28;20184;-65
2021/08/30 02:55:11;;;;;;;7.20;0.70;;;11.70;97.30;;;;;;2097949;28;20591;-65
2021/08/30 02:56:12;;;;;;;0.95;0.73;;;11.70;97.40;;;;;;2090291;28;20617;-64
2021/08/30 02:57:14;;;;;;;0.70;0.68;;;11.70;97.30;;;;;;2089805;28;20184;-65
2021/08/30 02:58:15;;;;;;;0.70;0.70;;;11.70;97.30;;;;;;2098120;28;20183;-65
2021/08/30 02:59:17;;;;;;;1.27;0.98;;;11.70;97.20;;;;;;2098442;28;20228;-64
2021/08/30 03:00:19;;;;;;;1.00;0.80;;;11.70;97.20;;;;;;2098099;28;20172;-65
2021/08/30 03:01:20;;;;;;;3.03;1.20;;;11.70;97.20;;;;;;2090099;28;20191;-66
2021/08/30 03:02:23;;;;;;;1.48;1.02;;;11.70;97.30;;;;;;2098155;28;20180;-65
2021/08/30 03:03:24;;;;;;;1.08;0.90;;;11.70;97.20;;;;;;2098117;28;20180;-65
2021/08/30 03:04:25;;;;;;;1.83;0.97;;;11.70;97.20;;;;;;2098113;28;20186;-65
2021/08/30 03:05:27;;;;;;;2.47;1.25;;;11.70;97.20;;;;;;2098045;28;20670;-65
2021/08/30 03:06:28;;;;;;;2.40;1.63;;;11.70;97.30;;;;;;2090027;28;20196;-66
2021/08/30 03:07:32;;;;;;;1.58;1.35;;;11.70;97.20;;;;;;2097952;28;20172;-65
2021/08/30 03:08:33;;;;;;;1.42;0.88;;;11.70;97.20;;;;;;2098053;28;20545;-64
2021/08/30 03:09:33;;;;;;;1.00;0.90;;;11.70;97.20;;;;;;2097700;28;20176;-64
2021/08/30 03:10:35;;;;;;;1.37;1.27;;;11.70;97.20;;;;;;2097959;28;20579;-64
2021/08/30 03:11:38;;;;;;;1.10;1.00;;;11.70;97.20;;;;;;2089944;28;20585;-65
2021/08/30 03:12:41;;;;;;;1.27;0.95;;;11.70;97.20;;;;;;2090106;28;20758;-66
2021/08/30 03:13:43;;;;;;;0.80;0.77;;;11.80;97.20;;;;;;2090073;28;20221;-65
2021/08/30 03:14:46;;;;;;;1.55;1.23;;;11.80;97.10;;;;;;2090038;28;20257;-64
2021/08/30 03:15:49;;;;;;;1.27;0.82;;;11.80;97.10;;;;;;2098049;28;20215;-64
2021/08/30 03:17:02;;;;;;;11.90;1.35;;;11.80;97.10;;;;;;2098039;28;20549;-65
2021/08/30 03:18:10;;;;;;;1.30;1.20;;;11.70;97.10;;;;;;2091424;28;20230;-66
2021/08/30 03:19:13;;;;;;;1.40;1.30;;;11.70;97.20;;;;;;2097276;28;20164;-65
2021/08/30 03:20:26;;;;;;;0.90;0.80;;;11.70;97.30;;;;;;2089481;28;20230;-64
2021/08/30 03:21:28;;;;;;;1.23;0.93;;;11.70;97.20;;;;;;2091386;28;20161;-65
2021/08/30 03:22:30;;;;;;;1.40;0.88;;;11.70;97.20;;;;;;2097702;28;20674;-65
2021/08/30 03:23:32;;;;;;;1.33;1.00;;;11.80;97.20;;;;;;2089791;28;20638;-65
2021/08/30 03:24:33;;;;;;;0.82;0.80;;;11.80;97.10;;;;;;2081468;28;20322;-65
2021/08/30 03:25:35;;;;;;;0.70;0.63;;;11.90;97.00;;;;;;2081525;28;20227;-64
2021/08/30 03:26:38;;;;;;;0.95;0.88;;;11.90;96.90;;;;;;2089568;28;20415;-65
2021/08/30 03:27:38;;;;;;;1.00;0.80;;;11.80;96.80;;;;;;2089617;28;20188;-64
2021/08/30 03:28:40;;;;;;;0.90;0.80;;;11.80;96.80;;;;;;2089550;28;20180;-65
2021/08/30 03:29:43;;;;;;;0.52;0.50;;;11.90;96.80;;;;;;2089384;28;20195;-66
2021/08/30 03:30:47;;;;;;;0.68;0.68;;;11.90;96.80;;;;;;2089424;28;20196;-65
2021/08/30 03:31:51;;;;;;;0.70;0.70;;;11.90;96.60;;;;;;2090274;28;20263;-66
2021/08/30 03:32:52;;;;;;;1.40;0.80;;;11.90;96.60;;;;;;2089421;28;20188;-65
2021/08/30 03:33:55;;;;;;;1.25;0.80;;;11.90;96.60;;;;;;2089677;28;20184;-66
2021/08/30 03:34:56;;;;;;;1.23;0.70;;;11.80;96.60;;;;;;2089362;28;20184;-65
2021/08/30 03:35:57;;;;;;;0.63;0.63;;;11.80;96.70;;;;;;2089598;28;20227;-65
2021/08/30 03:36:59;;;;;;;1.30;0.90;;;11.90;96.70;;;;;;2089496;28;20257;-65
2021/08/30 03:38:00;;;;;;;0.77;0.77;;;11.90;96.60;;;;;;2081292;28;20426;-66
2021/08/30 03:39:01;;;;;;;1.92;0.93;;;11.90;96.50;;;;;;2081074;28;20177;-64
2021/08/30 03:40:04;;;;;;;0.80;0.80;;;12.00;96.50;;;;;;2089669;28;20588;-62
2021/08/30 03:41:06;;;;;;;0.60;0.60;;;12.00;96.40;;;;;;2089357;28;20281;-64
2021/08/30 03:42:07;;;;;;;1.27;1.00;;;11.90;96.20;;;;;;2081343;28;20576;-64
2021/08/30 03:43:09;;;;;;;1.23;1.00;;;11.90;96.30;;;;;;2089507;28;20172;-65
2021/08/30 03:44:11;;;;;;;1.52;0.90;;;11.90;96.40;;;;;;2089500;28;20184;-66
2021/08/30 03:45:12;;;;;;;0.88;0.85;;;11.90;96.40;;;;;;2089482;28;20588;-65
2021/08/30 03:46:13;;;;;;;0.98;0.93;;;11.90;96.50;;;;;;2090174;28;20187;-65
2021/08/30 03:47:14;;;;;;;0.98;0.95;;;11.80;96.60;;;;;;2090008;28;20180;-65
2021/08/30 03:48:16;;;;;;;2.63;1.50;;;11.80;96.70;;;;;;2089496;28;20606;-64
2021/08/30 03:49:18;;;;;;;1.27;0.98;;;11.70;96.80;;;;;;2089202;28;20225;-65
2021/08/30 03:50:19;;;;;;;1.10;1.00;;;11.70;96.90;;;;;;2089400;28;20530;-64
2021/08/30 03:51:22;;;;;;;1.20;1.10;;;11.70;97.00;;;;;;2081144;28;20665;-66
2021/08/30 03:52:24;;;;;;;2.45;1.50;;;11.80;97.50;;;;;;2089445;28;20257;-65
2021/08/30 03:53:26;;;;;;;1.52;1.10;;;11.80;97.00;;;;;;2090024;28;20211;-64
2021/08/30 03:54:27;;;;;;;2.28;1.30;;;11.80;97.00;;;;;;2089422;28;20647;-66
2021/08/30 03:55:30;;;;;;;3.80;1.30;;;11.80;97.00;;;;;;2089416;28;20449;-65
2021/08/30 03:56:30;;;;;;;2.00;1.02;;;11.70;97.00;;;;;;2089517;28;20623;-65
2021/08/30 03:57:31;;;;;;;0.90;0.90;;;11.70;97.10;;;;;;2089294;28;20177;-66
2021/08/30 03:58:33;;;;;;;2.90;1.13;;;11.70;97.10;;;;;;2090089;28;20259;-64
2021/08/30 03:59:37;;;;;;;1.15;1.05;;;11.70;97.10;;;;;;2089159;28;20183;-65
2021/08/30 04:00:40;;;;;;;1.92;1.00;;;11.70;97.00;;;;;;2089394;28;20192;-64
2021/08/30 04:01:43;;;;;;;1.77;1.40;;;11.70;97.00;;;;;;2081576;28;20189;-64
2021/08/30 04:02:46;;;;;;;1.02;0.93;;;11.70;97.10;;;;;;2081407;28;20181;-65
2021/08/30 04:03:49;;;;;;;2.03;1.42;;;11.60;97.20;;;;;;2081240;28;20550;-65
2021/08/30 04:04:51;;;;;;;2.72;1.30;;;11.60;97.20;;;;;;2081258;28;20181;-64
2021/08/30 04:05:53;;;;;;;2.53;1.45;;;11.60;97.40;;;;;;2081506;28;20173;-64
2021/08/30 04:06:55;;;;;;;5.10;1.75;;;11.60;97.60;;;;;;2089722;28;20173;-63
2021/08/30 04:08:02;;;;;;;2.85;1.88;;;11.60;97.70;;;;;;2089295;28;20191;-65
2021/08/30 04:09:03;;;;;;;1.45;1.20;;;11.60;97.80;;;;;;2090001;28;20255;-64
2021/08/30 04:10:06;;;;;;;7.03;1.50;;;11.50;97.80;;;;;;2089237;28;20176;-64
2021/08/30 04:11:11;;;;;;;2.22;1.30;;;11.50;97.80;;;;;;2089224;28;20196;-64
2021/08/30 04:12:12;;;;;;;2.75;1.48;;;11.50;97.90;;;;;;2089120;28;20597;-64
2021/08/30 04:13:13;;;;;;;1.30;0.90;;;11.50;97.90;;;;;;2081473;28;20173;-65
2021/08/30 04:14:15;;;;;;;3.27;2.03;;;11.50;97.80;;;;;;2080986;28;20189;-63
2021/08/30 04:15:15;;;;;;;1.20;1.05;;;11.50;97.80;;;;;;2081162;28;20299;-63
2021/08/30 04:16:16;;;;;;;1.53;1.27;;;11.60;97.80;;;;;;2089175;28;20176;-64
2021/08/30 04:17:17;;;;;;;1.70;1.27;;;11.60;97.80;;;;;;2089760;28;20206;-64
2021/08/30 04:18:18;;;;;;;2.10;1.30;;;11.70;97.60;;;;;;2089093;28;20175;-63
2021/08/30 04:19:19;;;;;;;1.60;1.20;;;11.70;97.50;;;;;;2088909;28;20183;-65
2021/08/30 04:20:19;;;;;;;1.20;1.00;;;11.70;97.40;;;;;;2089590;28;20643;-65
2021/08/30 04:21:20;;;;;;;2.27;1.30;;;11.70;97.30;;;;;;2089760;28;20183;-64
2021/08/30 04:22:21;;;;;;;1.53;1.00;;;11.80;97.20;;;;;;2089626;28;20175;-64
2021/08/30 04:23:21;;;;;;;1.90;1.00;;;11.80;97.10;;;;;;2089805;28;20251;-64
2021/08/30 04:24:22;;;;;;;1.33;1.20;;;11.70;97.10;;;;;;2089677;28;20181;-64
2021/08/30 04:25:23;;;;;;;1.50;1.10;;;11.70;97.20;;;;;;2089724;28;20211;-65
2021/08/30 04:26:23;;;;;;;1.93;1.47;;;11.60;97.50;;;;;;2089741;28;20204;-64
2021/08/30 04:27:24;;;;;;;1.40;1.13;;;11.60;97.50;;;;;;2089684;28;20212;-64
2021/08/30 04:28:25;;;;;;;1.43;1.33;;;11.60;97.50;;;;;;2089772;28;20554;-66
2021/08/30 04:29:27;;;;;;;1.00;0.90;;;11.70;97.50;;;;;;2089501;28;20210;-64
2021/08/30 04:30:28;;;;;;;1.42;1.00;;;11.60;97.50;;;;;;2089601;28;20693;-64
2021/08/30 04:31:29;;;;;;;1.97;1.07;;;11.70;97.30;;;;;;2089661;28;20176;-64
2021/08/30 04:32:33;;;;;;;1.53;0.90;;;11.70;97.30;;;;;;2089715;28;20178;-65
2021/08/30 04:33:34;;;;;;;1.52;1.10;;;11.70;97.30;;;;;;2089616;28;20259;-64
2021/08/30 04:34:36;;;;;;;1.85;1.02;;;11.80;97.10;;;;;;2089815;28;20267;-64
2021/08/30 04:35:37;;;;;;;1.58;1.13;;;11.80;97.00;;;;;;2089068;28;20228;-64
2021/08/30 04:36:37;;;;;;;1.08;0.90;;;11.80;96.80;;;;;;2089203;28;20196;-64
2021/08/30 04:37:38;;;;;;;1.20;1.10;;;11.80;96.80;;;;;;2089764;28;20180;-64
2021/08/30 04:38:39;;;;;;;1.10;1.00;;;11.80;96.90;;;;;;2089785;28;20172;-65
2021/08/30 04:39:40;;;;;;;1.50;1.27;;;11.80;97.00;;;;;;2089415;28;20627;-64
2021/08/30 04:40:41;;;;;;;1.53;1.00;;;11.70;97.10;;;;;;2089670;28;20620;-64
2021/08/30 04:41:45;;;;;;;1.77;1.43;;;11.70;97.20;;;;;;2089179;28;20204;-64
2021/08/30 04:42:46;;;;;;;2.28;1.25;;;11.80;97.20;;;;;;2089234;28;20267;-63
2021/08/30 04:43:47;;;;;;;1.33;1.13;;;11.70;97.10;;;;;;2089757;28;20180;-63
2021/08/30 04:44:49;;;;;;;0.80;0.80;;;11.80;97.00;;;;;;2089789;28;20180;-65
2021/08/30 04:45:50;;;;;;;1.77;0.98;;;11.80;97.00;;;;;;2089726;28;20176;-63
2021/08/30 04:46:52;;;;;;;1.30;1.20;;;11.80;97.00;;;;;;2089756;28;20184;-64
2021/08/30 04:47:52;;;;;;;0.68;0.68;;;11.80;96.90;;;;;;2089143;28;20685;-63
2021/08/30 04:48:53;;;;;;;0.67;0.63;;;11.70;96.80;;;;;;2088918;28;20184;-63
2021/08/30 04:49:54;;;;;;;1.80;1.30;;;11.70;96.80;;;;;;2089800;28;20211;-64
2021/08/30 04:50:55;;;;;;;1.67;1.05;;;11.70;97.00;;;;;;2088983;28;20643;-63
2021/08/30 04:51:56;;;;;;;1.03;0.93;;;11.70;96.90;;;;;;2089116;28;20218;-66
2021/08/30 04:52:56;;;;;;;1.37;1.03;;;11.70;96.80;;;;;;2089343;28;20192;-64
2021/08/30 04:53:57;;;;;;;2.13;1.23;;;11.60;96.80;;;;;;2089493;28;20278;-64
2021/08/30 04:54:58;;;;;;;2.33;1.07;;;11.60;96.90;;;;;;2096995;28;20183;-65
2021/08/30 04:55:59;;;;;;;1.40;1.30;;;11.60;96.90;;;;;;2105905;28;20206;-65
2021/08/30 04:56:59;;;;;;;1.30;1.17;;;11.60;96.90;;;;;;2102451;28;20171;-66
2021/08/30 04:58:01;;;;;;;1.27;1.17;;;11.60;96.90;;;;;;2101787;28;20179;-65
2021/08/30 04:59:02;;;;;;;1.35;1.02;;;11.60;97.50;;;;;;2105822;28;20642;-65
2021/08/30 05:00:05;;;;;;;2.20;1.10;;;11.60;97.00;;;;;;2106340;28;20167;-65
2021/08/30 05:01:05;;;;;;;1.48;1.10;;;11.60;97.10;;;;;;2106098;28;20207;-63
2021/08/30 05:02:06;;;;;;;1.10;0.90;;;11.60;97.10;;;;;;2106214;28;20168;-64
2021/08/30 05:03:07;;;;;;;1.07;0.97;;;11.60;96.90;;;;;;2106476;28;20523;-64
2021/08/30 05:04:07;;;;;;;1.73;1.37;;;11.60;96.90;;;;;;2106198;28;20171;-64
2021/08/30 05:05:08;;;;;;;1.30;1.20;;;11.70;97.00;;;;;;2106463;28;20645;-65
2021/08/30 05:06:09;;;;;;;2.40;1.30;;;11.70;96.90;;;;;;2106144;28;20190;-64
2021/08/30 05:07:10;;;;;;;1.37;1.20;;;11.70;96.90;;;;;;2106447;28;20218;-64
2021/08/30 05:08:10;;;;;;;1.07;0.97;;;11.80;96.80;;;;;;2105664;28;20233;-65
2021/08/30 05:09:11;;;;;;;0.87;0.87;;;11.80;96.70;;;;;;2105192;28;20612;-63
2021/08/30 05:10:13;;;;;;;1.67;1.10;;;11.70;96.60;;;;;;2106243;28;20186;-64
2021/08/30 05:11:14;;;;;;;2.35;1.38;;;11.70;96.70;;;;;;2106266;28;20183;-63
2021/08/30 05:12:15;;;;;;;1.40;1.27;;;11.70;96.80;;;;;;2106278;28;20167;-64
2021/08/30 05:13:16;;;;;;;1.87;1.37;;;11.70;96.90;;;;;;2106294;28;20187;-63
2021/08/30 05:14:17;;;;;;;1.88;1.58;;;11.70;97.00;;;;;;2106261;28;20206;-65
2021/08/30 05:15:17;;;;;;;2.57;1.80;;;11.70;97.00;;;;;;2106094;28;20316;-64
2021/08/30 05:16:18;;;;;;;1.47;1.33;;;11.70;97.00;;;;;;2107736;28;20175;-64
2021/08/30 05:17:19;;;;;;;2.83;2.07;;;11.80;96.90;;;;;;2107820;28;20178;-65
2021/08/30 05:18:20;;;;;;;1.30;1.20;;;11.80;96.70;;;;;;2107858;28;20262;-65
2021/08/30 05:19:21;;;;;;;1.80;1.40;;;11.70;96.80;;;;;;2107201;28;20631;-64
2021/08/30 05:20:21;;;;;;;1.63;1.53;;;11.60;96.70;;;;;;2107873;28;20175;-63
2021/08/30 05:21:22;;;;;;;2.63;1.63;;;11.60;96.90;;;;;;2107774;28;20175;-66
2021/08/30 05:22:23;;;;;;;1.70;1.33;;;11.60;97.00;;;;;;2106202;28;21470;-64
2021/08/30 05:23:24;;;;;;;1.67;1.37;;;11.60;97.20;;;;;;2099844;28;20208;-63
2021/08/30 05:24:24;;;;;;;2.77;1.87;;;11.50;97.20;;;;;;2099555;28;20230;-60
2021/08/30 05:25:25;;;;;;;2.20;1.73;;;11.60;97.30;;;;;;2099358;28;20267;-64
2021/08/30 05:26:26;;;;;;;1.63;1.40;;;11.50;97.30;;;;;;2099586;28;20179;-64
2021/08/30 05:27:27;;;;;;;2.50;1.93;;;11.50;97.50;;;;;;2099348;28;20179;-66
2021/08/30 05:28:27;;;;;;;2.53;2.00;;;11.50;97.50;;;;;;2098838;28;20182;-64
2021/08/30 05:29:28;;;;;;;3.67;2.10;;;11.50;97.60;;;;;;2097921;28;20175;-64
2021/08/30 05:30:29;;;;;;;4.43;2.27;;;11.50;97.70;;;;;;2099293;28;20206;-66